Time;durP1;ratioP1;P1;durP2;ratioP2;P2;SDS_P1;SDS_P2;PMS_P1;PMS_P2;Temp;Humidity;BMP_temperature;BMP_pressure;BME280_temperature;BME280_humidity;BME280_pressure;Samples;Min_cycle;Max_cycle;Signal;HPM_P1;HPM_P2
2022/03/02 00:01:43;;;;;;;;;;;-0.60;67.00;;;;;;6155317;23;19917;-75
2022/03/02 00:04:10;;;;;;;;;;;-0.60;66.10;;;;;;6154626;23;20223;-76
2022/03/02 00:06:37;;;;;;;;;;;-0.60;65.60;;;;;;6158226;23;20407;-76
2022/03/02 00:09:03;;;;;;;;;;;-0.60;66.60;;;;;;6155719;23;19920;-75
2022/03/02 00:11:30;;;;;;;;;;;-0.60;66.20;;;;;;6156451;23;19916;-77
2022/03/02 00:14:00;;;;;;;;;;;-0.60;66.80;;;;;;6157323;23;19916;-76
2022/03/02 00:16:28;;;;;;;;;;;-0.60;67.10;;;;;;6161015;23;19921;-76
2022/03/02 00:18:58;;;;;;;;;;;-0.60;67.50;;;;;;6162709;23;19999;-77
2022/03/02 00:21:25;;;;;;;;;;;-0.70;68.60;;;;;;6164096;23;20251;-76
2022/03/02 00:23:52;;;;;;;;;;;-0.70;68.20;;;;;;6155804;23;19917;-77
2022/03/02 00:26:19;;;;;;;;;;;-0.70;67.40;;;;;;6158032;23;19944;-75
2022/03/02 00:28:46;;;;;;;;;;;-0.70;67.00;;;;;;6155139;23;20342;-77
2022/03/02 00:31:12;;;;;;;;;;;-0.80;67.80;;;;;;6153743;23;20388;-77
2022/03/02 00:33:39;;;;;;;;;;;-0.80;68.80;;;;;;6154790;23;19916;-77
2022/03/02 00:36:06;;;;;;;;;;;-0.80;69.10;;;;;;6162944;23;19916;-77
2022/03/02 00:38:33;;;;;;;;;;;-0.80;69.40;;;;;;6164102;23;19916;-75
2022/03/02 00:40:59;;;;;;;;;;;-0.90;69.00;;;;;;6158621;23;19940;-76
2022/03/02 00:43:26;;;;;;;;;;;-0.90;69.10;;;;;;6153917;23;19920;-76
2022/03/02 00:45:53;;;;;;;;;;;-0.90;68.70;;;;;;6157350;23;19917;-76
2022/03/02 00:48:20;;;;;;;;;;;-1.00;68.90;;;;;;6157976;23;20334;-76
2022/03/02 00:50:47;;;;;;;;;;;-1.10;69.10;;;;;;6159371;23;19920;-78
2022/03/02 00:53:14;;;;;;;;;;;-1.20;69.60;;;;;;6152379;23;19924;-76
2022/03/02 00:55:40;;;;;;;;;;;-1.20;70.30;;;;;;6154470;23;19917;-75
2022/03/02 00:58:07;;;;;;;;;;;-1.30;70.30;;;;;;6157497;23;19939;-77
2022/03/02 01:00:34;;;;;;;;;;;-1.30;71.40;;;;;;6156998;23;19917;-75
2022/03/02 01:03:01;;;;;;;;;;;-1.30;72.00;;;;;;6153019;23;19916;-75
2022/03/02 01:05:28;;;;;;;;;;;-1.40;72.10;;;;;;6158199;23;19916;-75
2022/03/02 01:07:55;;;;;;;;;;;-1.40;72.70;;;;;;6152987;23;19944;-77
2022/03/02 01:10:22;;;;;;;;;;;-1.40;74.30;;;;;;6157351;23;20354;-77
2022/03/02 01:12:49;;;;;;;;;;;-1.40;74.20;;;;;;6152856;23;19916;-77
2022/03/02 01:15:16;;;;;;;;;;;-1.40;74.20;;;;;;6157519;23;20306;-76
2022/03/02 01:17:43;;;;;;;;;;;-1.40;74.80;;;;;;6160668;23;19917;-76
2022/03/02 01:20:10;;;;;;;;;;;-1.40;74.60;;;;;;6158481;23;19916;-77
2022/03/02 01:22:37;;;;;;;;;;;-1.40;74.10;;;;;;6167535;23;19917;-76
2022/03/02 01:25:07;;;;;;;;;;;-1.40;74.30;;;;;;6167636;23;19927;-75
2022/03/02 01:27:33;;;;;;;;;;;-1.40;74.30;;;;;;6160073;23;19925;-77
2022/03/02 01:30:00;;;;;;;;;;;-1.40;74.20;;;;;;6162995;23;19916;-75
2022/03/02 01:32:27;;;;;;;;;;;-1.50;74.80;;;;;;6153479;23;19983;-77
2022/03/02 01:34:54;;;;;;;;;;;-1.50;75.70;;;;;;6158910;23;20349;-77
2022/03/02 01:37:20;;;;;;;;;;;-1.50;73.80;;;;;;6162850;23;19917;-76
2022/03/02 01:39:48;;;;;;;;;;;-1.50;74.00;;;;;;6156311;23;20361;-75
2022/03/02 01:42:15;;;;;;;;;;;-1.40;73.90;;;;;;6159022;23;20286;-75
2022/03/02 01:44:42;;;;;;;;;;;-1.50;73.60;;;;;;6166957;23;19920;-76
2022/03/02 01:47:08;;;;;;;;;;;-1.50;73.40;;;;;;6164390;23;19921;-77
2022/03/02 01:49:36;;;;;;;;;;;-1.50;73.40;;;;;;6159621;23;19951;-75
2022/03/02 01:52:03;;;;;;;;;;;-1.50;73.10;;;;;;6155735;23;19928;-77
2022/03/02 01:54:30;;;;;;;;;;;-1.50;73.30;;;;;;6166858;23;19940;-75
2022/03/02 01:56:57;;;;;;;;;;;-1.60;73.60;;;;;;6158078;23;19916;-78
2022/03/02 01:59:25;;;;;;;;;;;-1.60;74.30;;;;;;6163521;23;19923;-75
2022/03/02 02:01:52;;;;;;;;;;;-1.60;73.40;;;;;;6158732;23;19923;-76
2022/03/02 02:04:20;;;;;;;;;;;-1.60;74.40;;;;;;6159709;23;19936;-76
2022/03/02 02:06:47;;;;;;;;;;;-1.60;74.60;;;;;;6162745;23;19916;-76
2022/03/02 02:09:14;;;;;;;;;;;-1.60;75.50;;;;;;6156076;23;20357;-75
2022/03/02 02:11:40;;;;;;;;;;;-1.60;76.10;;;;;;6165331;23;19915;-76
2022/03/02 02:14:07;;;;;;;;;;;-1.60;75.10;;;;;;6162279;23;19940;-76
2022/03/02 02:16:34;;;;;;;;;;;-1.60;75.00;;;;;;6157195;23;19964;-77
2022/03/02 02:19:00;;;;;;;;;;;-1.60;75.10;;;;;;6154391;23;19916;-77
2022/03/02 02:21:27;;;;;;;;;;;-1.60;74.30;;;;;;6155615;23;20333;-76
2022/03/02 02:23:54;;;;;;;;;;;-1.60;74.70;;;;;;6156150;23;19923;-75
2022/03/02 02:26:21;;;;;;;;;;;-1.60;74.40;;;;;;6153786;23;19916;-76
2022/03/02 02:28:49;;;;;;;;;;;-1.60;74.00;;;;;;6156795;23;20389;-75
2022/03/02 02:31:15;;;;;;;;;;;-1.70;74.70;;;;;;6157124;23;19979;-77
2022/03/02 02:33:43;;;;;;;;;;;-1.80;74.80;;;;;;6179979;23;19924;-77
2022/03/02 02:36:10;;;;;;;;;;;-1.80;75.50;;;;;;6159984;23;20254;-75
2022/03/02 02:38:36;;;;;;;;;;;-1.90;76.50;;;;;;6155870;23;19920;-75
2022/03/02 02:41:03;;;;;;;;;;;-2.00;75.90;;;;;;6158634;23;19983;-74
2022/03/02 02:43:30;;;;;;;;;;;-2.00;76.30;;;;;;6158273;23;19939;-75
2022/03/02 02:45:57;;;;;;;;;;;-2.10;75.80;;;;;;6156566;23;19920;-75
2022/03/02 02:48:23;;;;;;;;;;;-2.10;75.80;;;;;;6154213;23;19943;-75
2022/03/02 02:50:50;;;;;;;;;;;-2.10;77.90;;;;;;6155661;23;19921;-76
2022/03/02 02:53:17;;;;;;;;;;;-2.10;77.60;;;;;;6154752;23;19971;-75
2022/03/02 02:55:45;;;;;;;;;;;-2.10;76.60;;;;;;6153304;23;19967;-76
2022/03/02 02:58:11;;;;;;;;;;;-2.10;77.00;;;;;;6157262;23;19920;-76
2022/03/02 03:00:40;;;;;;;;;;;-2.10;76.50;;;;;;6152886;23;19916;-76
2022/03/02 03:03:07;;;;;;;;;;;-2.00;77.10;;;;;;6155908;23;19932;-76
2022/03/02 03:05:35;;;;;;;;;;;-2.00;76.70;;;;;;6157512;23;20253;-74
2022/03/02 03:08:09;;;;;;;;;;;-1.90;76.30;;;;;;6162338;23;19917;-76
2022/03/02 03:10:36;;;;;;;;;;;-2.00;76.70;;;;;;6163865;23;19916;-77
2022/03/02 03:13:03;;;;;;;;;;;-2.00;76.60;;;;;;6156508;23;19917;-75
2022/03/02 03:15:30;;;;;;;;;;;-2.00;76.30;;;;;;6156291;23;19920;-75
2022/03/02 03:17:57;;;;;;;;;;;-2.00;75.90;;;;;;6183117;23;19924;-75
2022/03/02 03:20:25;;;;;;;;;;;-2.10;75.80;;;;;;6155397;23;19972;-74
2022/03/02 03:22:53;;;;;;;;;;;-2.10;75.60;;;;;;6159552;23;19916;-76
2022/03/02 03:25:20;;;;;;;;;;;-2.10;75.50;;;;;;6153635;23;19983;-77
2022/03/02 03:27:48;;;;;;;;;;;-2.10;75.10;;;;;;6160924;23;19939;-77
2022/03/02 03:30:15;;;;;;;;;;;-2.10;74.80;;;;;;6157650;23;19967;-74
2022/03/02 03:32:42;;;;;;;;;;;-2.10;74.80;;;;;;6157350;23;19967;-75
2022/03/02 03:35:09;;;;;;;;;;;-2.20;74.00;;;;;;6155740;23;19916;-75
2022/03/02 03:37:36;;;;;;;;;;;-2.30;75.00;;;;;;6155224;23;20338;-75
2022/03/02 03:40:05;;;;;;;;;;;-2.40;75.00;;;;;;6155905;23;19971;-73
2022/03/02 03:42:31;;;;;;;;;;;-2.30;75.10;;;;;;6159226;23;20334;-75
2022/03/02 03:44:58;;;;;;;;;;;-2.40;75.80;;;;;;6155049;23;19916;-77
2022/03/02 03:47:25;;;;;;;;;;;-2.40;76.80;;;;;;6156776;23;19917;-76
2022/03/02 03:49:52;;;;;;;;;;;-2.40;77.00;;;;;;6158459;23;19917;-75
2022/03/02 03:52:19;;;;;;;;;;;-2.40;77.60;;;;;;6160651;23;20338;-74
2022/03/02 03:54:46;;;;;;;;;;;-2.40;77.50;;;;;;6159189;23;20349;-75
2022/03/02 03:57:13;;;;;;;;;;;-2.40;77.50;;;;;;6153979;23;19916;-74
2022/03/02 03:59:40;;;;;;;;;;;-2.30;77.10;;;;;;6152106;23;19917;-76
2022/03/02 04:02:07;;;;;;;;;;;-2.30;76.90;;;;;;6157488;23;19925;-74
2022/03/02 04:04:34;;;;;;;;;;;-2.40;77.20;;;;;;6154728;23;19917;-75
2022/03/02 04:07:00;;;;;;;;;;;-2.40;76.80;;;;;;6161170;23;20389;-75
2022/03/02 04:09:27;;;;;;;;;;;-2.40;76.80;;;;;;6154911;23;20294;-74
2022/03/02 04:11:54;;;;;;;;;;;-2.50;76.90;;;;;;6160982;23;19917;-76
2022/03/02 04:14:21;;;;;;;;;;;-2.40;77.20;;;;;;6158409;23;20409;-74
2022/03/02 04:16:48;;;;;;;;;;;-2.40;76.80;;;;;;6157975;23;19917;-74
2022/03/02 04:19:15;;;;;;;;;;;-2.40;76.60;;;;;;6159729;23;19916;-74
2022/03/02 04:21:41;;;;;;;;;;;-2.50;77.90;;;;;;6157533;23;19924;-74
2022/03/02 04:24:08;;;;;;;;;;;-2.40;78.90;;;;;;6159077;23;19917;-74
2022/03/02 04:26:35;;;;;;;;;;;-2.40;78.80;;;;;;6157356;23;19916;-74
2022/03/02 04:29:02;;;;;;;;;;;-2.30;77.90;;;;;;6159486;23;19917;-76
2022/03/02 04:31:29;;;;;;;;;;;-2.30;78.00;;;;;;6180036;23;19916;-76
2022/03/02 04:33:55;;;;;;;;;;;-2.30;77.20;;;;;;6155696;23;19935;-74
2022/03/02 04:36:22;;;;;;;;;;;-2.30;76.70;;;;;;6156731;23;19921;-75
2022/03/02 04:38:49;;;;;;;;;;;-2.30;76.30;;;;;;6154562;23;19916;-77
2022/03/02 04:41:16;;;;;;;;;;;-2.30;75.80;;;;;;6152619;23;19924;-75
2022/03/02 04:43:43;;;;;;;;;;;-2.30;75.50;;;;;;6152149;23;19917;-74
2022/03/02 04:46:10;;;;;;;;;;;-2.40;75.10;;;;;;6153102;23;19917;-75
2022/03/02 04:48:37;;;;;;;;;;;-2.40;75.60;;;;;;6154423;23;19920;-74
2022/03/02 04:51:03;;;;;;;;;;;-2.30;76.20;;;;;;6157989;23;19916;-75
2022/03/02 04:53:30;;;;;;;;;;;-2.10;76.20;;;;;;6153030;23;19916;-74
2022/03/02 04:55:57;;;;;;;;;;;-2.00;76.00;;;;;;6153971;23;19924;-74
2022/03/02 04:58:24;;;;;;;;;;;-1.80;76.00;;;;;;6158085;23;19917;-75
2022/03/02 05:00:50;;;;;;;;;;;-1.70;75.00;;;;;;6155025;23;20334;-75
2022/03/02 05:03:17;;;;;;;;;;;-1.80;74.40;;;;;;6157184;23;19927;-75
2022/03/02 05:05:44;;;;;;;;;;;-1.90;75.10;;;;;;6163591;23;19917;-74
2022/03/02 05:08:11;;;;;;;;;;;-2.00;75.50;;;;;;6156432;23;20338;-73
2022/03/02 05:10:38;;;;;;;;;;;-2.00;75.90;;;;;;6156570;23;19920;-76
2022/03/02 05:13:04;;;;;;;;;;;-2.10;76.30;;;;;;6156782;23;20326;-76
2022/03/02 05:15:31;;;;;;;;;;;-2.10;77.20;;;;;;6155650;23;20247;-75
2022/03/02 05:17:58;;;;;;;;;;;-2.10;79.10;;;;;;6157969;23;19923;-74
2022/03/02 05:20:25;;;;;;;;;;;-2.00;78.40;;;;;;6163436;23;20250;-75
2022/03/02 05:22:52;;;;;;;;;;;-2.00;78.40;;;;;;6158187;23;20322;-74
2022/03/02 05:25:19;;;;;;;;;;;-1.90;78.50;;;;;;6160894;23;19974;-75
2022/03/02 05:27:46;;;;;;;;;;;-1.90;77.90;;;;;;6158245;23;19916;-75
2022/03/02 05:30:16;;;;;;;;;;;-1.80;77.30;;;;;;6155101;23;20257;-74
2022/03/02 05:32:43;;;;;;;;;;;-1.80;76.50;;;;;;6158608;23;19918;-74
2022/03/02 05:35:10;;;;;;;;;;;-1.80;76.00;;;;;;6158401;23;19917;-77
2022/03/02 05:37:42;;;;;;;;;;;-1.90;76.40;;;;;;6160785;23;19917;-74
2022/03/02 05:40:14;;;;;;;;;;;-1.90;75.80;;;;;;6157583;23;19917;-74
2022/03/02 05:42:40;;;;;;;;;;;-2.00;75.60;;;;;;6156766;23;19924;-75
2022/03/02 05:45:08;;;;;;;;;;;-1.90;76.00;;;;;;6156873;23;19966;-73
2022/03/02 05:47:36;;;;;;;;;;;-1.90;75.90;;;;;;6160687;23;19983;-74
2022/03/02 05:50:04;;;;;;;;;;;-1.90;75.60;;;;;;6186853;23;19916;-77
2022/03/02 05:52:31;;;;;;;;;;;-2.00;75.30;;;;;;6156679;23;19916;-74
2022/03/02 05:54:57;;;;;;;;;;;-2.00;76.30;;;;;;6154812;23;19971;-75
2022/03/02 05:57:24;;;;;;;;;;;-2.10;75.80;;;;;;6154504;23;19928;-77
2022/03/02 05:59:52;;;;;;;;;;;-2.20;75.80;;;;;;6160151;23;19956;-76
2022/03/02 06:02:18;;;;;;;;;;;-2.20;76.10;;;;;;6156037;23;19948;-74
2022/03/02 06:04:47;;;;;;;;;;;-2.30;76.20;;;;;;6158879;23;19963;-77
2022/03/02 06:07:14;;;;;;;;;;;-2.30;76.70;;;;;;6158032;23;19927;-74
2022/03/02 06:09:41;;;;;;;;;;;-2.40;77.30;;;;;;6156569;23;20253;-77
2022/03/02 06:12:09;;;;;;;;;;;-2.40;77.60;;;;;;6159155;23;20372;-74
2022/03/02 06:14:35;;;;;;;;;;;-2.40;77.60;;;;;;6157210;23;19916;-76
2022/03/02 06:17:02;;;;;;;;;;;-2.40;77.50;;;;;;6161180;23;20286;-74
2022/03/02 06:19:29;;;;;;;;;;;-2.40;77.30;;;;;;6157888;23;19917;-75
2022/03/02 06:21:57;;;;;;;;;;;-2.40;77.00;;;;;;6153876;23;20250;-74
2022/03/02 06:24:24;;;;;;;;;;;-2.40;78.90;;;;;;6154626;23;20254;-74
2022/03/02 06:26:51;;;;;;;;;;;-2.40;76.90;;;;;;6155848;23;19971;-75
2022/03/02 06:29:17;;;;;;;;;;;-2.40;77.60;;;;;;6154034;23;19921;-73
2022/03/02 06:31:44;;;;;;;;;;;-2.40;77.00;;;;;;6155918;23;20261;-75
2022/03/02 06:34:11;;;;;;;;;;;-2.40;76.50;;;;;;6158277;23;20342;-74
2022/03/02 06:36:38;;;;;;;;;;;-2.40;77.30;;;;;;6153458;23;19921;-74
2022/03/02 06:39:05;;;;;;;;;;;-2.40;76.90;;;;;;6164454;23;19917;-75
2022/03/02 06:41:34;;;;;;;;;;;-2.50;78.60;;;;;;6157328;23;19920;-76
2022/03/02 06:44:05;;;;;;;;;;;-2.40;77.70;;;;;;6154094;23;19917;-74
2022/03/02 06:46:52;;;;;;;;;;;-2.40;77.60;;;;;;6159935;23;19917;-75
2022/03/02 06:49:21;;;;;;;;;;;-2.40;77.90;;;;;;6157907;23;19947;-75
2022/03/02 06:51:51;;;;;;;;;;;-2.30;78.60;;;;;;6163460;23;19963;-75
2022/03/02 06:54:20;;;;;;;;;;;-2.30;77.60;;;;;;6154620;23;19917;-77
2022/03/02 06:56:50;;;;;;;;;;;-2.20;79.20;;;;;;6153923;23;19916;-74
2022/03/02 06:59:24;;;;;;;;;;;-2.20;79.40;;;;;;6152884;23;19917;-74
2022/03/02 07:01:51;;;;;;;;;;;-2.10;78.90;;;;;;6156745;23;19916;-75
2022/03/02 07:04:19;;;;;;;;;;;-2.10;79.60;;;;;;6158235;23;19928;-75
2022/03/02 07:06:46;;;;;;;;;;;-2.00;79.60;;;;;;6163106;23;19916;-75
2022/03/02 07:09:14;;;;;;;;;;;-1.90;79.60;;;;;;6154397;23;19990;-74
2022/03/02 07:11:41;;;;;;;;;;;-1.90;79.10;;;;;;6157065;23;19916;-77
2022/03/02 07:14:08;;;;;;;;;;;-1.80;79.30;;;;;;6153090;23;19916;-74
2022/03/02 07:16:35;;;;;;;;;;;-1.70;80.40;;;;;;6157930;23;19920;-77
2022/03/02 07:19:02;;;;;;;;;;;-1.60;80.10;;;;;;6157398;23;20338;-75
2022/03/02 07:21:29;;;;;;;;;;;-1.50;79.60;;;;;;6156895;23;19940;-76
2022/03/02 07:24:05;;;;;;;;;;;-1.50;81.50;;;;;;6158833;23;19916;-77
2022/03/02 07:26:34;;;;;;;;;;;-1.40;81.50;;;;;;6157482;23;19975;-74
2022/03/02 07:29:01;;;;;;;;;;;-1.20;81.70;;;;;;6155798;23;19917;-77
2022/03/02 07:31:28;;;;;;;;;;;-1.10;82.00;;;;;;6155157;23;19928;-74
2022/03/02 07:34:04;;;;;;;;;;;-0.90;81.90;;;;;;6155386;23;19955;-77
2022/03/02 07:36:31;;;;;;;;;;;-0.80;81.70;;;;;;6154221;23;20318;-73
2022/03/02 07:38:59;;;;;;;;;;;-0.60;81.10;;;;;;6153709;23;19917;-75
2022/03/02 07:41:25;;;;;;;;;;;-0.30;80.90;;;;;;6153223;23;19975;-74
2022/03/02 07:43:53;;;;;;;;;;;-0.10;81.40;;;;;;6154913;23;20282;-74
2022/03/02 07:46:20;;;;;;;;;;;0.20;81.40;;;;;;6154074;23;19927;-74
2022/03/02 07:48:46;;;;;;;;;;;0.40;80.70;;;;;;6155029;23;19971;-76
2022/03/02 07:51:14;;;;;;;;;;;0.70;80.00;;;;;;6153980;23;19917;-76
2022/03/02 07:53:43;;;;;;;;;;;0.90;78.20;;;;;;6159938;23;19916;-74
2022/03/02 07:56:10;;;;;;;;;;;1.10;77.00;;;;;;6156632;23;19920;-75
2022/03/02 07:58:39;;;;;;;;;;;1.40;76.30;;;;;;6156385;23;19983;-76
2022/03/02 08:01:12;;;;;;;;;;;1.70;75.90;;;;;;6153382;23;20339;-76
2022/03/02 08:03:39;;;;;;;;;;;2.00;75.60;;;;;;6154982;23;19992;-75
2022/03/02 08:06:07;;;;;;;;;;;2.30;73.70;;;;;;6156478;23;20334;-74
2022/03/02 08:08:34;;;;;;;;;;;2.60;73.00;;;;;;6154111;23;19920;-76
2022/03/02 08:11:02;;;;;;;;;;;2.80;72.50;;;;;;6154700;23;19920;-74
2022/03/02 08:13:29;;;;;;;;;;;3.10;71.10;;;;;;6177449;23;19916;-74
2022/03/02 08:15:56;;;;;;;;;;;3.30;68.60;;;;;;6156055;23;20013;-74
2022/03/02 08:18:23;;;;;;;;;;;3.60;68.60;;;;;;6152538;23;19995;-74
2022/03/02 08:20:55;;;;;;;;;;;3.90;64.90;;;;;;6153275;23;19987;-74
2022/03/02 08:23:27;;;;;;;;;;;4.30;61.60;;;;;;6119069;23;20346;-74
2022/03/02 08:25:54;;;;;;;;;;;4.60;58.30;;;;;;6096646;23;19921;-75
2022/03/02 08:28:21;;;;;;;;;;;4.90;56.70;;;;;;6093784;23;19932;-75
2022/03/02 08:30:52;;;;;;;;;;;5.20;56.20;;;;;;6120789;23;19917;-74
2022/03/02 08:33:21;;;;;;;;;;;5.50;55.80;;;;;;6121858;23;19937;-74
2022/03/02 08:35:50;;;;;;;;;;;5.70;56.30;;;;;;6100749;23;19917;-75
2022/03/02 08:38:16;;;;;;;;;;;6.00;55.60;;;;;;6126526;23;19917;-75
2022/03/02 08:40:44;;;;;;;;;;;6.20;55.00;;;;;;6124487;23;19917;-74
2022/03/02 08:43:12;;;;;;;;;;;6.40;53.30;;;;;;6102455;23;19988;-76
2022/03/02 08:45:39;;;;;;;;;;;6.60;52.30;;;;;;6104021;23;19917;-75
2022/03/02 08:48:09;;;;;;;;;;;6.90;52.20;;;;;;6101564;23;19917;-74
2022/03/02 08:50:35;;;;;;;;;;;7.10;51.20;;;;;;6099402;23;19968;-74
2022/03/02 08:53:02;;;;;;;;;;;7.20;50.50;;;;;;6107349;23;19941;-76
2022/03/02 08:55:31;;;;;;;;;;;7.40;49.80;;;;;;6101050;23;19924;-75
2022/03/02 08:57:58;;;;;;;;;;;7.50;49.10;;;;;;6102829;23;20250;-75
2022/03/02 09:00:25;;;;;;;;;;;7.60;49.10;;;;;;6101549;23;19969;-76
2022/03/02 09:02:52;;;;;;;;;;;7.70;48.70;;;;;;6099463;23;19917;-75
2022/03/02 09:05:19;;;;;;;;;;;7.70;49.00;;;;;;6110871;23;19953;-76
2022/03/02 09:07:46;;;;;;;;;;;7.70;47.90;;;;;;6099716;23;19984;-77
2022/03/02 09:10:13;;;;;;;;;;;7.80;47.10;;;;;;6122498;23;19972;-75
2022/03/02 09:12:41;;;;;;;;;;;7.70;45.40;;;;;;6122307;23;20291;-76
2022/03/02 09:15:11;;;;;;;;;;;7.90;46.50;;;;;;6128088;23;19921;-75
2022/03/02 09:17:38;;;;;;;;;;;8.00;46.90;;;;;;6123309;23;20294;-75
2022/03/02 09:20:08;;;;;;;;;;;8.20;46.40;;;;;;6101931;23;19969;-76
2022/03/02 09:22:36;;;;;;;;;;;8.40;46.00;;;;;;6140927;23;19979;-76
2022/03/02 09:25:03;;;;;;;;;;;8.60;45.30;;;;;;6157877;23;20334;-76
2022/03/02 09:27:30;;;;;;;;;;;8.60;43.60;;;;;;6158644;23;19917;-76
2022/03/02 09:29:57;;;;;;;;;;;8.60;43.80;;;;;;6157312;23;20381;-77
2022/03/02 09:32:24;;;;;;;;;;;8.50;44.90;;;;;;6159540;23;19967;-76
2022/03/02 09:34:53;;;;;;;;;;;8.80;44.20;;;;;;6164700;23;19929;-74
2022/03/02 09:37:22;;;;;;;;;;;8.80;43.50;;;;;;6156750;23;20258;-75
2022/03/02 09:39:53;;;;;;;;;;;9.00;43.20;;;;;;6161262;23;19923;-74
2022/03/02 09:42:27;;;;;;;;;;;9.10;45.30;;;;;;6166494;23;19920;-74
2022/03/02 09:45:04;;;;;;;;;;;9.20;46.70;;;;;;6154394;23;20018;-76
2022/03/02 09:47:41;;;;;;;;;;;9.30;46.40;;;;;;6164321;23;19920;-75
2022/03/02 09:50:09;;;;;;;;;;;9.40;45.10;;;;;;6158296;23;19967;-75
2022/03/02 09:52:37;;;;;;;;;;;9.50;44.00;;;;;;6162201;23;19916;-76
2022/03/02 09:55:08;;;;;;;;;;;9.40;44.50;;;;;;6182143;23;20330;-74
2022/03/02 09:57:40;;;;;;;;;;;9.30;42.50;;;;;;6160161;23;19940;-75
2022/03/02 10:00:08;;;;;;;;;;;9.30;44.50;;;;;;6157874;23;20338;-76
2022/03/02 10:02:40;;;;;;;;;;;9.20;42.30;;;;;;6153675;23;19967;-76
2022/03/02 10:05:10;;;;;;;;;;;9.20;41.90;;;;;;6157274;23;19971;-74
2022/03/02 10:07:40;;;;;;;;;;;9.20;39.90;;;;;;6159417;23;20231;-74
2022/03/02 10:10:08;;;;;;;;;;;9.20;42.20;;;;;;6159659;23;20410;-75
2022/03/02 10:12:36;;;;;;;;;;;9.30;42.70;;;;;;6161767;23;19916;-74
2022/03/02 10:15:04;;;;;;;;;;;9.40;42.40;;;;;;6155441;23;19991;-75
2022/03/02 10:17:33;;;;;;;;;;;9.40;41.30;;;;;;6157239;23;20297;-75
2022/03/02 10:20:05;;;;;;;;;;;9.30;42.60;;;;;;6159216;23;20322;-76
2022/03/02 10:22:51;;;;;;;;;;;9.20;42.70;;;;;;6156941;23;19917;-74
2022/03/02 10:25:20;;;;;;;;;;;9.40;43.40;;;;;;6181565;23;19923;-76
2022/03/02 10:28:06;;;;;;;;;;;9.50;43.50;;;;;;6155084;23;20426;-76
2022/03/02 10:30:37;;;;;;;;;;;9.60;42.80;;;;;;6159550;23;19916;-76
2022/03/02 10:33:07;;;;;;;;;;;9.80;42.00;;;;;;6159195;23;20396;-76
2022/03/02 10:35:38;;;;;;;;;;;10.00;41.30;;;;;;6158157;23;19916;-75
2022/03/02 10:38:04;;;;;;;;;;;10.00;38.90;;;;;;6162262;23;19916;-74
2022/03/02 10:40:32;;;;;;;;;;;10.20;40.70;;;;;;6158354;23;20365;-76
2022/03/02 10:43:01;;;;;;;;;;;10.40;40.80;;;;;;6179333;23;19923;-74
2022/03/02 10:45:31;;;;;;;;;;;10.50;40.80;;;;;;6158598;23;19916;-77
2022/03/02 10:48:16;;;;;;;;;;;10.70;40.00;;;;;;6156349;23;20318;-75
2022/03/02 10:50:43;;;;;;;;;;;10.80;38.60;;;;;;6152776;23;19932;-76
2022/03/02 10:53:13;;;;;;;;;;;10.80;40.60;;;;;;6159887;23;19917;-74
2022/03/02 10:55:45;;;;;;;;;;;10.90;38.90;;;;;;6154737;23;19920;-76
2022/03/02 10:58:12;;;;;;;;;;;10.90;37.50;;;;;;6159002;23;19916;-74
2022/03/02 11:00:39;;;;;;;;;;;10.80;37.70;;;;;;6154752;23;19964;-75
2022/03/02 11:03:07;;;;;;;;;;;10.90;39.10;;;;;;6159934;23;19920;-74
2022/03/02 11:05:35;;;;;;;;;;;10.90;37.50;;;;;;6154054;23;19920;-76
2022/03/02 11:08:02;;;;;;;;;;;10.90;36.80;;;;;;6177658;23;19916;-76
2022/03/02 11:10:33;;;;;;;;;;;10.90;37.70;;;;;;6159384;23;20227;-74
2022/03/02 11:13:03;;;;;;;;;;;10.70;37.20;;;;;;6177582;23;19923;-77
2022/03/02 11:15:49;;;;;;;;;;;10.70;36.80;;;;;;6161244;23;19916;-74
2022/03/02 11:18:19;;;;;;;;;;;10.70;38.20;;;;;;6155636;23;19917;-76
2022/03/02 11:20:59;;;;;;;;;;;10.90;37.50;;;;;;6157394;23;20294;-76
2022/03/02 11:23:26;;;;;;;;;;;11.10;37.10;;;;;;6159003;23;19971;-76
2022/03/02 11:25:54;;;;;;;;;;;11.20;36.30;;;;;;6156280;23;19923;-76
2022/03/02 11:28:24;;;;;;;;;;;11.40;37.20;;;;;;6158122;23;19971;-75
2022/03/02 11:30:52;;;;;;;;;;;11.40;36.00;;;;;;6153694;23;19921;-76
2022/03/02 11:33:26;;;;;;;;;;;11.50;35.80;;;;;;6155658;23;19940;-74
2022/03/02 11:35:56;;;;;;;;;;;11.50;34.80;;;;;;6156500;23;19921;-75
2022/03/02 11:38:27;;;;;;;;;;;11.40;34.90;;;;;;6157700;23;20258;-75
2022/03/02 11:40:54;;;;;;;;;;;11.30;34.80;;;;;;6157212;23;19921;-74
2022/03/02 11:43:22;;;;;;;;;;;11.30;35.70;;;;;;6160717;23;19924;-74
2022/03/02 11:45:56;;;;;;;;;;;11.50;34.80;;;;;;6157508;23;19916;-76
2022/03/02 11:48:24;;;;;;;;;;;11.50;35.40;;;;;;6155483;23;19925;-76
2022/03/02 11:51:01;;;;;;;;;;;11.50;35.20;;;;;;6156137;23;20352;-76
2022/03/02 11:53:54;;;;;;;;;;;11.70;35.60;;;;;;6182583;23;19917;-76
2022/03/02 11:56:24;;;;;;;;;;;11.90;34.80;;;;;;6152452;23;19920;-76
2022/03/02 11:58:56;;;;;;;;;;;11.90;34.50;;;;;;6180914;23;19932;-77
2022/03/02 12:01:41;;;;;;;;;;;11.80;34.50;;;;;;6158284;23;19916;-75
2022/03/02 12:04:25;;;;;;;;;;;11.90;34.90;;;;;;6161101;23;19916;-75
2022/03/02 12:06:53;;;;;;;;;;;12.20;36.20;;;;;;6155886;23;20231;-75
2022/03/02 12:09:24;;;;;;;;;;;12.40;36.80;;;;;;6156840;23;19917;-75
2022/03/02 12:11:52;;;;;;;;;;;12.50;34.20;;;;;;6155689;23;19920;-75
2022/03/02 12:14:18;;;;;;;;;;;12.60;34.10;;;;;;6156379;23;19920;-76
2022/03/02 12:16:51;;;;;;;;;;;12.50;33.10;;;;;;6158986;23;20326;-75
2022/03/02 12:19:19;;;;;;;;;;;12.30;33.80;;;;;;6152526;23;19920;-75
2022/03/02 12:21:48;;;;;;;;;;;12.20;34.70;;;;;;6154428;23;19939;-75
2022/03/02 12:24:19;;;;;;;;;;;12.40;35.40;;;;;;6156960;23;19971;-74
2022/03/02 12:26:49;;;;;;;;;;;12.60;33.60;;;;;;6152687;23;20007;-76
2022/03/02 12:29:16;;;;;;;;;;;13.00;34.30;;;;;;6157035;23;19916;-75
2022/03/02 12:31:47;;;;;;;;;;;12.90;32.90;;;;;;6157363;23;19916;-76
2022/03/02 12:34:15;;;;;;;;;;;13.00;32.00;;;;;;6158490;23;19967;-75
2022/03/02 12:36:43;;;;;;;;;;;12.70;32.10;;;;;;6157047;23;19924;-75
2022/03/02 12:39:10;;;;;;;;;;;12.70;32.10;;;;;;6158320;23;20298;-75
2022/03/02 12:41:37;;;;;;;;;;;12.90;33.10;;;;;;6155583;23;19917;-75
2022/03/02 12:44:04;;;;;;;;;;;13.10;31.90;;;;;;6153418;23;19963;-76
2022/03/02 12:46:32;;;;;;;;;;;13.00;32.20;;;;;;6158065;23;19952;-75
2022/03/02 12:49:00;;;;;;;;;;;12.90;31.80;;;;;;6152563;23;19971;-76
2022/03/02 12:51:28;;;;;;;;;;;12.90;32.40;;;;;;6155460;23;19967;-75
2022/03/02 12:53:54;;;;;;;;;;;13.00;32.20;;;;;;6156682;23;19916;-76
2022/03/02 12:56:22;;;;;;;;;;;13.10;32.70;;;;;;6158860;23;20369;-76
2022/03/02 12:58:49;;;;;;;;;;;13.10;31.70;;;;;;6183385;23;19917;-76
2022/03/02 13:01:15;;;;;;;;;;;13.20;31.60;;;;;;6157436;23;19997;-76
2022/03/02 13:03:45;;;;;;;;;;;13.30;31.50;;;;;;6155192;23;19936;-76
2022/03/02 13:06:16;;;;;;;;;;;13.40;32.30;;;;;;6156217;23;19917;-76
2022/03/02 13:09:09;;;;;;;;;;;13.40;31.20;;;;;;6157098;23;20462;-76
2022/03/02 13:11:37;;;;;;;;;;;13.70;31.40;;;;;;6152139;23;19921;-77
2022/03/02 13:14:09;;;;;;;;;;;13.90;30.40;;;;;;6157197;23;19916;-77
2022/03/02 13:16:37;;;;;;;;;;;13.80;30.40;;;;;;6152727;23;19916;-76
2022/03/02 13:19:15;;;;;;;;;;;14.00;30.80;;;;;;6163465;23;19916;-76
2022/03/02 13:21:41;;;;;;;;;;;14.00;30.00;;;;;;6157736;23;20393;-75
2022/03/02 13:24:09;;;;;;;;;;;14.10;30.00;;;;;;6164142;23;19921;-75
2022/03/02 13:26:56;;;;;;;;;;;13.90;30.00;;;;;;6156473;23;19916;-74
2022/03/02 13:29:28;;;;;;;;;;;13.80;29.50;;;;;;6145675;23;20302;-74
2022/03/02 13:32:00;;;;;;;;;;;14.00;31.00;;;;;;6181873;23;19979;-76
2022/03/02 13:34:28;;;;;;;;;;;14.10;30.00;;;;;;6162356;23;19988;-74
2022/03/02 13:36:55;;;;;;;;;;;14.30;31.70;;;;;;6157667;23;19916;-75
2022/03/02 13:39:26;;;;;;;;;;;14.30;30.00;;;;;;6159558;23;19979;-74
2022/03/02 13:41:57;;;;;;;;;;;14.00;29.70;;;;;;6158971;23;20400;-76
2022/03/02 13:44:30;;;;;;;;;;;14.00;30.00;;;;;;6156266;23;19916;-77
2022/03/02 13:47:06;;;;;;;;;;;14.00;30.40;;;;;;6154298;23;19917;-76
2022/03/02 13:49:45;;;;;;;;;;;14.10;30.50;;;;;;6157395;23;20327;-77
2022/03/02 13:52:13;;;;;;;;;;;14.30;29.70;;;;;;6160993;23;19924;-76
2022/03/02 13:54:40;;;;;;;;;;;14.60;30.00;;;;;;6159841;23;19971;-76
2022/03/02 13:57:17;;;;;;;;;;;14.80;29.70;;;;;;6159865;23;19923;-75
2022/03/02 13:59:44;;;;;;;;;;;14.60;28.90;;;;;;6158014;23;19920;-77
2022/03/02 14:02:11;;;;;;;;;;;14.30;29.60;;;;;;6156983;23;20359;-75
2022/03/02 14:04:44;;;;;;;;;;;14.00;29.60;;;;;;6162530;23;19938;-75
2022/03/02 14:07:15;;;;;;;;;;;13.80;29.80;;;;;;6161882;23;19971;-76
2022/03/02 14:09:42;;;;;;;;;;;13.60;30.50;;;;;;6161054;23;19928;-75
2022/03/02 14:12:09;;;;;;;;;;;13.60;30.50;;;;;;6160215;23;19955;-76
2022/03/02 14:14:36;;;;;;;;;;;13.50;30.90;;;;;;6164920;23;19940;-77
2022/03/02 14:17:10;;;;;;;;;;;13.60;31.80;;;;;;6164118;23;19940;-76
2022/03/02 14:19:39;;;;;;;;;;;13.80;30.40;;;;;;6156139;23;19920;-75
2022/03/02 14:22:07;;;;;;;;;;;13.90;30.70;;;;;;6154134;23;19917;-77
2022/03/02 14:24:35;;;;;;;;;;;13.90;30.70;;;;;;6158147;23;19916;-77
2022/03/02 14:27:05;;;;;;;;;;;14.00;30.50;;;;;;6181218;23;20011;-77